sensor_id;sensor_type;location;lat;lon;timestamp;P1;durP1;ratioP1;P2;durP2;ratioP2
55609;SDS011;41486;52.502;13.486;2022-12-07T00:01:18;8.55;;;4.80;;
55609;SDS011;41486;52.502;13.486;2022-12-07T00:03:49;10.23;;;5.15;;
55609;SDS011;41486;52.502;13.486;2022-12-07T00:06:18;6.97;;;4.32;;
55609;SDS011;41486;52.502;13.486;2022-12-07T00:08:47;8.88;;;5.00;;
55609;SDS011;41486;52.502;13.486;2022-12-07T00:11:16;6.63;;;3.80;;
55609;SDS011;41486;52.502;13.486;2022-12-07T00:13:46;7.53;;;4.28;;
55609;SDS011;41486;52.502;13.486;2022-12-07T00:16:15;9.60;;;4.82;;
55609;SDS011;41486;52.502;13.486;2022-12-07T00:18:45;7.53;;;3.75;;
55609;SDS011;41486;52.502;13.486;2022-12-07T00:21:14;7.75;;;4.80;;
55609;SDS011;41486;52.502;13.486;2022-12-07T00:23:43;8.55;;;3.40;;
55609;SDS011;41486;52.502;13.486;2022-12-07T00:26:14;8.07;;;4.10;;
55609;SDS011;41486;52.502;13.486;2022-12-07T00:28:45;8.93;;;5.68;;
55609;SDS011;41486;52.502;13.486;2022-12-07T00:31:14;6.20;;;3.95;;
55609;SDS011;41486;52.502;13.486;2022-12-07T00:33:44;6.90;;;3.75;;
55609;SDS011;41486;52.502;13.486;2022-12-07T00:36:13;8.40;;;4.68;;
55609;SDS011;41486;52.502;13.486;2022-12-07T00:38:48;9.15;;;4.95;;
55609;SDS011;41486;52.502;13.486;2022-12-07T00:41:18;7.32;;;5.10;;
55609;SDS011;41486;52.502;13.486;2022-12-07T00:43:48;6.47;;;4.13;;
55609;SDS011;41486;52.502;13.486;2022-12-07T00:46:17;4.78;;;2.72;;
55609;SDS011;41486;52.502;13.486;2022-12-07T00:48:46;6.93;;;3.88;;
55609;SDS011;41486;52.502;13.486;2022-12-07T00:51:15;7.35;;;4.25;;
55609;SDS011;41486;52.502;13.486;2022-12-07T00:53:44;5.72;;;4.00;;
55609;SDS011;41486;52.502;13.486;2022-12-07T00:56:13;7.15;;;3.97;;
55609;SDS011;41486;52.502;13.486;2022-12-07T00:58:44;6.18;;;3.80;;
55609;SDS011;41486;52.502;13.486;2022-12-07T01:01:17;5.78;;;3.70;;
55609;SDS011;41486;52.502;13.486;2022-12-07T01:03:45;5.18;;;3.38;;
55609;SDS011;41486;52.502;13.486;2022-12-07T01:06:14;5.43;;;3.95;;
55609;SDS011;41486;52.502;13.486;2022-12-07T01:08:43;5.65;;;3.55;;
55609;SDS011;41486;52.502;13.486;2022-12-07T01:11:12;5.80;;;2.90;;
55609;SDS011;41486;52.502;13.486;2022-12-07T01:13:46;5.55;;;3.25;;
55609;SDS011;41486;52.502;13.486;2022-12-07T01:16:17;7.53;;;4.07;;
55609;SDS011;41486;52.502;13.486;2022-12-07T01:18:46;6.57;;;4.57;;
55609;SDS011;41486;52.502;13.486;2022-12-07T01:21:15;6.53;;;3.50;;
55609;SDS011;41486;52.502;13.486;2022-12-07T01:23:44;5.18;;;3.45;;
55609;SDS011;41486;52.502;13.486;2022-12-07T01:26:13;5.75;;;3.50;;
55609;SDS011;41486;52.502;13.486;2022-12-07T01:28:43;5.28;;;2.95;;
55609;SDS011;41486;52.502;13.486;2022-12-07T01:31:14;4.38;;;2.97;;
55609;SDS011;41486;52.502;13.486;2022-12-07T01:33:43;4.65;;;2.88;;
55609;SDS011;41486;52.502;13.486;2022-12-07T01:36:13;7.10;;;2.67;;
55609;SDS011;41486;52.502;13.486;2022-12-07T01:38:43;5.95;;;2.92;;
55609;SDS011;41486;52.502;13.486;2022-12-07T01:41:12;6.65;;;3.67;;
55609;SDS011;41486;52.502;13.486;2022-12-07T01:46:52;4.72;;;3.00;;
55609;SDS011;41486;52.502;13.486;2022-12-07T01:49:23;4.85;;;3.10;;
55609;SDS011;41486;52.502;13.486;2022-12-07T01:51:57;6.18;;;3.50;;
55609;SDS011;41486;52.502;13.486;2022-12-07T01:54:29;5.90;;;3.08;;
55609;SDS011;41486;52.502;13.486;2022-12-07T01:56:58;4.60;;;3.05;;
55609;SDS011;41486;52.502;13.486;2022-12-07T01:59:27;6.72;;;3.75;;
55609;SDS011;41486;52.502;13.486;2022-12-07T02:01:56;6.93;;;3.60;;
55609;SDS011;41486;52.502;13.486;2022-12-07T02:04:24;4.68;;;2.80;;
55609;SDS011;41486;52.502;13.486;2022-12-07T02:06:53;3.90;;;2.70;;
55609;SDS011;41486;52.502;13.486;2022-12-07T02:09:22;4.57;;;3.03;;
55609;SDS011;41486;52.502;13.486;2022-12-07T02:11:50;3.75;;;2.40;;
55609;SDS011;41486;52.502;13.486;2022-12-07T02:14:19;4.80;;;2.58;;
55609;SDS011;41486;52.502;13.486;2022-12-07T02:16:51;8.75;;;2.55;;
55609;SDS011;41486;52.502;13.486;2022-12-07T02:19:39;5.40;;;2.97;;
55609;SDS011;41486;52.502;13.486;2022-12-07T02:25:48;4.32;;;2.95;;
55609;SDS011;41486;52.502;13.486;2022-12-07T02:28:45;3.95;;;2.60;;
55609;SDS011;41486;52.502;13.486;2022-12-07T02:31:19;5.30;;;2.90;;
55609;SDS011;41486;52.502;13.486;2022-12-07T02:33:51;3.90;;;2.58;;
55609;SDS011;41486;52.502;13.486;2022-12-07T02:36:30;3.92;;;2.80;;
55609;SDS011;41486;52.502;13.486;2022-12-07T02:39:06;4.18;;;2.50;;
55609;SDS011;41486;52.502;13.486;2022-12-07T02:41:42;2.95;;;2.22;;
55609;SDS011;41486;52.502;13.486;2022-12-07T02:44:16;3.22;;;1.73;;
55609;SDS011;41486;52.502;13.486;2022-12-07T02:46:49;3.95;;;2.40;;
55609;SDS011;41486;52.502;13.486;2022-12-07T02:49:21;4.13;;;2.45;;
55609;SDS011;41486;52.502;13.486;2022-12-07T02:51:51;7.05;;;2.60;;
55609;SDS011;41486;52.502;13.486;2022-12-07T02:54:20;5.72;;;2.75;;
55609;SDS011;41486;52.502;13.486;2022-12-07T02:56:49;3.67;;;2.33;;
55609;SDS011;41486;52.502;13.486;2022-12-07T02:59:28;4.70;;;2.60;;
55609;SDS011;41486;52.502;13.486;2022-12-07T03:02:07;5.32;;;3.20;;
55609;SDS011;41486;52.502;13.486;2022-12-07T03:04:45;3.88;;;2.78;;
55609;SDS011;41486;52.502;13.486;2022-12-07T03:07:25;3.45;;;2.40;;
55609;SDS011;41486;52.502;13.486;2022-12-07T03:10:01;4.90;;;2.67;;
55609;SDS011;41486;52.502;13.486;2022-12-07T03:12:36;6.22;;;3.03;;
55609;SDS011;41486;52.502;13.486;2022-12-07T03:15:14;4.22;;;2.72;;
55609;SDS011;41486;52.502;13.486;2022-12-07T03:17:48;5.43;;;2.60;;
55609;SDS011;41486;52.502;13.486;2022-12-07T03:20:19;4.45;;;3.10;;
55609;SDS011;41486;52.502;13.486;2022-12-07T03:22:49;4.55;;;2.70;;
55609;SDS011;41486;52.502;13.486;2022-12-07T03:25:20;4.95;;;3.15;;
55609;SDS011;41486;52.502;13.486;2022-12-07T03:27:49;4.15;;;2.53;;
55609;SDS011;41486;52.502;13.486;2022-12-07T03:30:24;4.35;;;3.15;;
55609;SDS011;41486;52.502;13.486;2022-12-07T03:32:58;5.22;;;2.90;;
55609;SDS011;41486;52.502;13.486;2022-12-07T03:35:31;5.55;;;2.88;;
55609;SDS011;41486;52.502;13.486;2022-12-07T03:38:04;5.05;;;3.33;;
55609;SDS011;41486;52.502;13.486;2022-12-07T03:40:43;5.78;;;3.05;;
55609;SDS011;41486;52.502;13.486;2022-12-07T03:43:16;5.82;;;3.15;;
55609;SDS011;41486;52.502;13.486;2022-12-07T03:45:49;4.32;;;2.97;;
55609;SDS011;41486;52.502;13.486;2022-12-07T03:48:24;5.03;;;2.90;;
55609;SDS011;41486;52.502;13.486;2022-12-07T03:50:57;5.28;;;3.10;;
55609;SDS011;41486;52.502;13.486;2022-12-07T03:53:34;4.10;;;2.63;;
55609;SDS011;41486;52.502;13.486;2022-12-07T03:56:07;5.35;;;3.35;;
55609;SDS011;41486;52.502;13.486;2022-12-07T03:58:36;4.57;;;3.17;;
55609;SDS011;41486;52.502;13.486;2022-12-07T04:01:06;5.90;;;3.83;;
55609;SDS011;41486;52.502;13.486;2022-12-07T04:03:34;5.68;;;3.38;;
55609;SDS011;41486;52.502;13.486;2022-12-07T04:06:02;7.47;;;3.95;;
55609;SDS011;41486;52.502;13.486;2022-12-07T04:08:30;7.45;;;3.83;;
55609;SDS011;41486;52.502;13.486;2022-12-07T04:10:58;5.57;;;3.90;;
55609;SDS011;41486;52.502;13.486;2022-12-07T04:13:26;6.95;;;4.65;;
55609;SDS011;41486;52.502;13.486;2022-12-07T04:15:54;8.13;;;3.63;;
55609;SDS011;41486;52.502;13.486;2022-12-07T04:18:24;7.93;;;4.07;;
55609;SDS011;41486;52.502;13.486;2022-12-07T04:20:52;6.00;;;3.53;;
55609;SDS011;41486;52.502;13.486;2022-12-07T04:23:20;5.38;;;3.58;;
55609;SDS011;41486;52.502;13.486;2022-12-07T04:25:47;7.38;;;3.85;;
55609;SDS011;41486;52.502;13.486;2022-12-07T04:28:15;4.72;;;3.30;;
55609;SDS011;41486;52.502;13.486;2022-12-07T04:30:45;11.45;;;5.55;;
55609;SDS011;41486;52.502;13.486;2022-12-07T04:33:13;6.70;;;4.10;;
55609;SDS011;41486;52.502;13.486;2022-12-07T04:35:42;6.10;;;4.53;;
55609;SDS011;41486;52.502;13.486;2022-12-07T04:38:10;8.90;;;4.78;;
55609;SDS011;41486;52.502;13.486;2022-12-07T04:40:38;14.18;;;6.05;;
55609;SDS011;41486;52.502;13.486;2022-12-07T04:43:06;7.22;;;4.53;;
55609;SDS011;41486;52.502;13.486;2022-12-07T04:45:34;10.63;;;5.25;;
55609;SDS011;41486;52.502;13.486;2022-12-07T04:48:03;8.80;;;5.00;;
55609;SDS011;41486;52.502;13.486;2022-12-07T04:50:31;9.40;;;5.60;;
55609;SDS011;41486;52.502;13.486;2022-12-07T04:53:00;10.18;;;5.18;;
55609;SDS011;41486;52.502;13.486;2022-12-07T04:55:28;9.75;;;5.93;;
55609;SDS011;41486;52.502;13.486;2022-12-07T04:57:56;11.82;;;4.85;;
55609;SDS011;41486;52.502;13.486;2022-12-07T05:00:24;10.07;;;5.90;;
55609;SDS011;41486;52.502;13.486;2022-12-07T05:02:52;12.63;;;6.20;;
55609;SDS011;41486;52.502;13.486;2022-12-07T05:05:20;12.23;;;7.05;;
55609;SDS011;41486;52.502;13.486;2022-12-07T05:07:48;9.80;;;6.00;;
55609;SDS011;41486;52.502;13.486;2022-12-07T05:10:17;12.82;;;6.65;;
55609;SDS011;41486;52.502;13.486;2022-12-07T05:12:45;14.25;;;6.70;;
55609;SDS011;41486;52.502;13.486;2022-12-07T05:15:14;12.15;;;6.03;;
55609;SDS011;41486;52.502;13.486;2022-12-07T05:17:43;14.13;;;7.43;;
55609;SDS011;41486;52.502;13.486;2022-12-07T05:20:11;12.90;;;6.95;;
55609;SDS011;41486;52.502;13.486;2022-12-07T05:22:39;16.70;;;7.38;;
55609;SDS011;41486;52.502;13.486;2022-12-07T05:25:07;13.70;;;7.10;;
55609;SDS011;41486;52.502;13.486;2022-12-07T05:27:37;11.60;;;6.32;;
55609;SDS011;41486;52.502;13.486;2022-12-07T05:30:05;13.07;;;6.72;;
55609;SDS011;41486;52.502;13.486;2022-12-07T05:32:34;15.68;;;8.10;;
55609;SDS011;41486;52.502;13.486;2022-12-07T05:35:02;16.55;;;7.07;;
55609;SDS011;41486;52.502;13.486;2022-12-07T05:37:31;10.35;;;6.43;;
55609;SDS011;41486;52.502;13.486;2022-12-07T05:39:59;14.00;;;7.63;;
55609;SDS011;41486;52.502;13.486;2022-12-07T05:42:27;10.15;;;5.30;;
55609;SDS011;41486;52.502;13.486;2022-12-07T05:44:57;11.40;;;6.85;;
55609;SDS011;41486;52.502;13.486;2022-12-07T05:47:25;14.57;;;7.53;;
55609;SDS011;41486;52.502;13.486;2022-12-07T05:49:53;11.70;;;7.40;;
55609;SDS011;41486;52.502;13.486;2022-12-07T05:52:21;15.23;;;6.28;;
55609;SDS011;41486;52.502;13.486;2022-12-07T05:54:49;16.40;;;7.45;;
55609;SDS011;41486;52.502;13.486;2022-12-07T05:57:20;16.85;;;7.78;;
55609;SDS011;41486;52.502;13.486;2022-12-07T05:59:48;17.75;;;9.50;;
55609;SDS011;41486;52.502;13.486;2022-12-07T06:02:16;14.32;;;7.32;;
55609;SDS011;41486;52.502;13.486;2022-12-07T06:04:45;14.40;;;7.88;;
55609;SDS011;41486;52.502;13.486;2022-12-07T06:07:15;16.88;;;7.22;;
55609;SDS011;41486;52.502;13.486;2022-12-07T06:09:44;18.17;;;9.50;;
55609;SDS011;41486;52.502;13.486;2022-12-07T06:12:12;18.27;;;8.02;;
55609;SDS011;41486;52.502;13.486;2022-12-07T06:14:58;17.17;;;8.23;;
55609;SDS011;41486;52.502;13.486;2022-12-07T06:17:28;17.30;;;8.18;;
55609;SDS011;41486;52.502;13.486;2022-12-07T06:19:56;20.80;;;8.95;;
55609;SDS011;41486;52.502;13.486;2022-12-07T06:22:24;16.05;;;9.07;;
55609;SDS011;41486;52.502;13.486;2022-12-07T06:24:52;15.48;;;7.85;;
55609;SDS011;41486;52.502;13.486;2022-12-07T06:27:20;17.92;;;8.80;;
55609;SDS011;41486;52.502;13.486;2022-12-07T06:29:48;20.15;;;10.45;;
55609;SDS011;41486;52.502;13.486;2022-12-07T06:32:16;36.13;;;16.70;;
55609;SDS011;41486;52.502;13.486;2022-12-07T06:34:46;21.92;;;8.93;;
55609;SDS011;41486;52.502;13.486;2022-12-07T06:37:14;12.32;;;7.55;;
55609;SDS011;41486;52.502;13.486;2022-12-07T06:39:42;14.95;;;6.78;;
55609;SDS011;41486;52.502;13.486;2022-12-07T06:42:10;17.85;;;7.90;;
55609;SDS011;41486;52.502;13.486;2022-12-07T06:44:38;12.90;;;7.22;;
55609;SDS011;41486;52.502;13.486;2022-12-07T06:47:06;19.02;;;8.32;;
55609;SDS011;41486;52.502;13.486;2022-12-07T06:49:57;16.63;;;9.70;;
55609;SDS011;41486;52.502;13.486;2022-12-07T06:52:25;14.23;;;7.75;;
55609;SDS011;41486;52.502;13.486;2022-12-07T06:54:53;12.20;;;7.15;;
55609;SDS011;41486;52.502;13.486;2022-12-07T06:57:21;19.88;;;10.75;;
55609;SDS011;41486;52.502;13.486;2022-12-07T06:59:49;16.83;;;7.75;;
55609;SDS011;41486;52.502;13.486;2022-12-07T07:02:17;16.83;;;8.68;;
55609;SDS011;41486;52.502;13.486;2022-12-07T07:04:45;17.98;;;7.95;;
55609;SDS011;41486;52.502;13.486;2022-12-07T07:07:15;17.52;;;8.43;;
55609;SDS011;41486;52.502;13.486;2022-12-07T07:09:44;13.30;;;7.57;;
55609;SDS011;41486;52.502;13.486;2022-12-07T07:12:13;18.50;;;9.70;;
55609;SDS011;41486;52.502;13.486;2022-12-07T07:14:41;16.20;;;8.75;;
55609;SDS011;41486;52.502;13.486;2022-12-07T07:17:10;16.10;;;8.77;;
55609;SDS011;41486;52.502;13.486;2022-12-07T07:19:38;14.15;;;8.23;;
55609;SDS011;41486;52.502;13.486;2022-12-07T07:22:06;16.83;;;8.50;;
55609;SDS011;41486;52.502;13.486;2022-12-07T07:24:35;15.75;;;7.35;;
55609;SDS011;41486;52.502;13.486;2022-12-07T07:27:03;16.30;;;8.30;;
55609;SDS011;41486;52.502;13.486;2022-12-07T07:29:36;18.08;;;9.73;;
55609;SDS011;41486;52.502;13.486;2022-12-07T07:32:04;19.90;;;8.88;;
55609;SDS011;41486;52.502;13.486;2022-12-07T07:34:32;14.50;;;8.18;;
55609;SDS011;41486;52.502;13.486;2022-12-07T07:37:00;14.13;;;7.00;;
55609;SDS011;41486;52.502;13.486;2022-12-07T07:39:29;15.07;;;7.68;;
55609;SDS011;41486;52.502;13.486;2022-12-07T07:41:58;19.45;;;7.82;;
55609;SDS011;41486;52.502;13.486;2022-12-07T07:44:26;11.27;;;6.03;;
55609;SDS011;41486;52.502;13.486;2022-12-07T07:47:00;16.00;;;9.38;;
55609;SDS011;41486;52.502;13.486;2022-12-07T07:49:29;7.88;;;5.18;;
55609;SDS011;41486;52.502;13.486;2022-12-07T07:52:11;13.48;;;6.93;;
55609;SDS011;41486;52.502;13.486;2022-12-07T07:54:43;9.80;;;5.72;;
55609;SDS011;41486;52.502;13.486;2022-12-07T07:57:12;9.85;;;5.22;;
55609;SDS011;41486;52.502;13.486;2022-12-07T07:59:40;9.13;;;5.72;;
55609;SDS011;41486;52.502;13.486;2022-12-07T08:02:09;10.73;;;5.68;;
55609;SDS011;41486;52.502;13.486;2022-12-07T08:04:41;11.77;;;5.53;;
55609;SDS011;41486;52.502;13.486;2022-12-07T08:07:10;6.60;;;4.35;;
55609;SDS011;41486;52.502;13.486;2022-12-07T08:09:47;11.32;;;6.07;;
55609;SDS011;41486;52.502;13.486;2022-12-07T08:12:21;8.90;;;5.38;;
55609;SDS011;41486;52.502;13.486;2022-12-07T08:14:49;8.57;;;4.38;;
55609;SDS011;41486;52.502;13.486;2022-12-07T08:17:17;10.80;;;5.53;;
55609;SDS011;41486;52.502;13.486;2022-12-07T08:19:45;9.52;;;5.35;;
55609;SDS011;41486;52.502;13.486;2022-12-07T08:22:13;7.50;;;3.90;;
55609;SDS011;41486;52.502;13.486;2022-12-07T08:24:41;8.48;;;5.88;;
55609;SDS011;41486;52.502;13.486;2022-12-07T08:27:09;6.78;;;4.35;;
55609;SDS011;41486;52.502;13.486;2022-12-07T08:29:41;8.48;;;3.90;;
55609;SDS011;41486;52.502;13.486;2022-12-07T08:32:09;6.75;;;3.45;;
55609;SDS011;41486;52.502;13.486;2022-12-07T08:34:37;7.57;;;3.75;;
55609;SDS011;41486;52.502;13.486;2022-12-07T08:37:05;6.50;;;3.88;;
55609;SDS011;41486;52.502;13.486;2022-12-07T08:39:33;7.15;;;4.20;;
55609;SDS011;41486;52.502;13.486;2022-12-07T08:42:02;6.20;;;3.55;;
55609;SDS011;41486;52.502;13.486;2022-12-07T08:44:37;5.72;;;4.07;;
55609;SDS011;41486;52.502;13.486;2022-12-07T08:47:08;4.80;;;2.95;;
55609;SDS011;41486;52.502;13.486;2022-12-07T08:49:38;5.68;;;3.60;;
55609;SDS011;41486;52.502;13.486;2022-12-07T08:52:08;4.75;;;2.70;;
55609;SDS011;41486;52.502;13.486;2022-12-07T08:54:39;5.07;;;2.88;;
55609;SDS011;41486;52.502;13.486;2022-12-07T08:57:13;5.43;;;2.20;;
55609;SDS011;41486;52.502;13.486;2022-12-07T08:59:42;4.07;;;2.40;;
55609;SDS011;41486;52.502;13.486;2022-12-07T09:02:12;5.70;;;2.65;;
55609;SDS011;41486;52.502;13.486;2022-12-07T09:04:40;1.65;;;1.55;;
55609;SDS011;41486;52.502;13.486;2022-12-07T09:07:12;2.38;;;1.77;;
55609;SDS011;41486;52.502;13.486;2022-12-07T09:09:41;2.60;;;1.90;;
55609;SDS011;41486;52.502;13.486;2022-12-07T09:12:09;3.28;;;2.35;;
55609;SDS011;41486;52.502;13.486;2022-12-07T09:14:38;2.83;;;1.58;;
55609;SDS011;41486;52.502;13.486;2022-12-07T09:17:06;4.13;;;1.90;;
55609;SDS011;41486;52.502;13.486;2022-12-07T09:19:36;2.10;;;1.33;;
55609;SDS011;41486;52.502;13.486;2022-12-07T09:22:05;1.20;;;1.10;;
55609;SDS011;41486;52.502;13.486;2022-12-07T09:24:34;2.58;;;1.45;;
55609;SDS011;41486;52.502;13.486;2022-12-07T09:27:02;1.52;;;1.13;;
55609;SDS011;41486;52.502;13.486;2022-12-07T09:29:30;1.20;;;0.85;;
55609;SDS011;41486;52.502;13.486;2022-12-07T09:31:58;2.15;;;1.50;;
55609;SDS011;41486;52.502;13.486;2022-12-07T09:34:32;2.05;;;1.40;;
55609;SDS011;41486;52.502;13.486;2022-12-07T09:37:02;1.88;;;1.42;;
55609;SDS011;41486;52.502;13.486;2022-12-07T09:39:30;1.65;;;1.30;;
55609;SDS011;41486;52.502;13.486;2022-12-07T09:41:58;1.90;;;1.70;;
55609;SDS011;41486;52.502;13.486;2022-12-07T09:44:30;2.78;;;1.60;;
55609;SDS011;41486;52.502;13.486;2022-12-07T09:46:59;1.70;;;1.40;;
55609;SDS011;41486;52.502;13.486;2022-12-07T09:49:28;1.63;;;1.40;;
55609;SDS011;41486;52.502;13.486;2022-12-07T09:52:03;1.45;;;1.35;;
55609;SDS011;41486;52.502;13.486;2022-12-07T09:54:47;1.88;;;1.10;;
55609;SDS011;41486;52.502;13.486;2022-12-07T09:57:17;2.22;;;1.88;;
55609;SDS011;41486;52.502;13.486;2022-12-07T09:59:48;1.35;;;1.25;;
55609;SDS011;41486;52.502;13.486;2022-12-07T10:02:22;2.83;;;1.33;;
55609;SDS011;41486;52.502;13.486;2022-12-07T10:04:53;1.60;;;1.40;;
55609;SDS011;41486;52.502;13.486;2022-12-07T10:07:24;1.70;;;1.20;;
55609;SDS011;41486;52.502;13.486;2022-12-07T10:09:53;0.95;;;0.93;;
55609;SDS011;41486;52.502;13.486;2022-12-07T10:12:21;2.72;;;1.33;;
55609;SDS011;41486;52.502;13.486;2022-12-07T10:14:54;3.88;;;1.58;;
55609;SDS011;41486;52.502;13.486;2022-12-07T10:17:36;1.35;;;0.98;;
55609;SDS011;41486;52.502;13.486;2022-12-07T10:20:13;1.63;;;1.27;;
55609;SDS011;41486;52.502;13.486;2022-12-07T10:22:58;2.03;;;1.77;;
55609;SDS011;41486;52.502;13.486;2022-12-07T10:25:29;2.58;;;1.75;;
55609;SDS011;41486;52.502;13.486;2022-12-07T10:28:01;2.30;;;1.05;;
55609;SDS011;41486;52.502;13.486;2022-12-07T10:30:46;1.45;;;1.27;;
55609;SDS011;41486;52.502;13.486;2022-12-07T10:33:27;1.42;;;1.05;;
55609;SDS011;41486;52.502;13.486;2022-12-07T10:35:56;1.90;;;1.38;;
55609;SDS011;41486;52.502;13.486;2022-12-07T10:38:27;1.52;;;1.13;;
55609;SDS011;41486;52.502;13.486;2022-12-07T10:41:04;1.23;;;1.10;;
55609;SDS011;41486;52.502;13.486;2022-12-07T10:43:35;0.93;;;0.90;;
55609;SDS011;41486;52.502;13.486;2022-12-07T10:49:15;3.13;;;1.48;;
55609;SDS011;41486;52.502;13.486;2022-12-07T10:52:11;2.85;;;1.60;;
55609;SDS011;41486;52.502;13.486;2022-12-07T10:54:51;1.35;;;1.15;;
55609;SDS011;41486;52.502;13.486;2022-12-07T10:57:37;2.25;;;1.25;;
55609;SDS011;41486;52.502;13.486;2022-12-07T11:00:16;2.10;;;1.40;;
55609;SDS011;41486;52.502;13.486;2022-12-07T11:02:51;2.58;;;1.42;;
55609;SDS011;41486;52.502;13.486;2022-12-07T11:05:29;3.20;;;1.38;;
55609;SDS011;41486;52.502;13.486;2022-12-07T11:08:09;2.80;;;1.52;;
55609;SDS011;41486;52.502;13.486;2022-12-07T11:10:46;1.70;;;1.48;;
55609;SDS011;41486;52.502;13.486;2022-12-07T11:13:24;7.72;;;1.60;;
55609;SDS011;41486;52.502;13.486;2022-12-07T11:16:08;1.85;;;1.38;;
55609;SDS011;41486;52.502;13.486;2022-12-07T11:18:49;2.45;;;2.13;;
55609;SDS011;41486;52.502;13.486;2022-12-07T11:21:27;2.55;;;2.00;;
55609;SDS011;41486;52.502;13.486;2022-12-07T11:24:05;2.22;;;2.00;;
55609;SDS011;41486;52.502;13.486;2022-12-07T11:26:45;4.60;;;2.28;;
55609;SDS011;41486;52.502;13.486;2022-12-07T11:29:29;2.58;;;2.25;;
55609;SDS011;41486;52.502;13.486;2022-12-07T11:32:13;2.67;;;1.33;;
55609;SDS011;41486;52.502;13.486;2022-12-07T11:34:48;5.18;;;3.42;;
55609;SDS011;41486;52.502;13.486;2022-12-07T11:37:28;5.70;;;3.25;;
55609;SDS011;41486;52.502;13.486;2022-12-07T11:40:08;2.45;;;1.90;;
55609;SDS011;41486;52.502;13.486;2022-12-07T11:42:46;5.50;;;3.33;;
55609;SDS011;41486;52.502;13.486;2022-12-07T11:45:24;4.30;;;1.85;;
55609;SDS011;41486;52.502;13.486;2022-12-07T11:47:55;3.78;;;2.30;;
55609;SDS011;41486;52.502;13.486;2022-12-07T11:50:30;2.50;;;2.03;;
55609;SDS011;41486;52.502;13.486;2022-12-07T11:53:04;4.68;;;1.65;;
55609;SDS011;41486;52.502;13.486;2022-12-07T11:55:41;3.08;;;1.60;;
55609;SDS011;41486;52.502;13.486;2022-12-07T11:58:20;3.20;;;1.75;;
55609;SDS011;41486;52.502;13.486;2022-12-07T12:01:06;4.35;;;2.78;;
55609;SDS011;41486;52.502;13.486;2022-12-07T12:03:44;2.15;;;1.67;;
55609;SDS011;41486;52.502;13.486;2022-12-07T12:06:19;3.42;;;1.65;;
55609;SDS011;41486;52.502;13.486;2022-12-07T12:08:50;2.72;;;1.45;;
55609;SDS011;41486;52.502;13.486;2022-12-07T12:11:50;6.32;;;1.90;;
55609;SDS011;41486;52.502;13.486;2022-12-07T12:15:05;5.38;;;2.13;;
55609;SDS011;41486;52.502;13.486;2022-12-07T12:20:53;2.92;;;1.52;;
55609;SDS011;41486;52.502;13.486;2022-12-07T12:23:32;3.03;;;2.15;;
55609;SDS011;41486;52.502;13.486;2022-12-07T12:26:07;2.83;;;1.40;;
55609;SDS011;41486;52.502;13.486;2022-12-07T12:28:58;5.10;;;2.05;;
55609;SDS011;41486;52.502;13.486;2022-12-07T12:37:12;4.63;;;1.83;;
55609;SDS011;41486;52.502;13.486;2022-12-07T12:43:01;4.03;;;1.83;;
55609;SDS011;41486;52.502;13.486;2022-12-07T12:45:30;3.47;;;1.48;;
55609;SDS011;41486;52.502;13.486;2022-12-07T12:48:00;1.20;;;1.10;;
55609;SDS011;41486;52.502;13.486;2022-12-07T12:50:30;4.38;;;1.67;;
55609;SDS011;41486;52.502;13.486;2022-12-07T12:53:03;2.92;;;1.77;;
55609;SDS011;41486;52.502;13.486;2022-12-07T12:56:01;2.83;;;1.40;;
55609;SDS011;41486;52.502;13.486;2022-12-07T13:02:08;3.00;;;1.73;;
55609;SDS011;41486;52.502;13.486;2022-12-07T13:04:53;1.60;;;1.15;;
55609;SDS011;41486;52.502;13.486;2022-12-07T13:10:42;4.13;;;1.40;;
55609;SDS011;41486;52.502;13.486;2022-12-07T13:13:34;2.78;;;1.30;;
55609;SDS011;41486;52.502;13.486;2022-12-07T13:25:12;1.77;;;1.50;;
55609;SDS011;41486;52.502;13.486;2022-12-07T13:27:54;2.97;;;1.80;;
55609;SDS011;41486;52.502;13.486;2022-12-07T13:30:25;6.25;;;1.73;;
55609;SDS011;41486;52.502;13.486;2022-12-07T13:32:57;5.47;;;1.70;;
55609;SDS011;41486;52.502;13.486;2022-12-07T13:35:30;6.63;;;2.10;;
55609;SDS011;41486;52.502;13.486;2022-12-07T13:38:02;3.97;;;2.10;;
55609;SDS011;41486;52.502;13.486;2022-12-07T13:40:34;3.35;;;1.42;;
55609;SDS011;41486;52.502;13.486;2022-12-07T13:43:04;5.47;;;1.80;;
55609;SDS011;41486;52.502;13.486;2022-12-07T13:45:42;2.50;;;1.20;;
55609;SDS011;41486;52.502;13.486;2022-12-07T13:48:19;4.47;;;1.50;;
55609;SDS011;41486;52.502;13.486;2022-12-07T13:50:53;1.45;;;0.90;;
55609;SDS011;41486;52.502;13.486;2022-12-07T13:53:23;5.20;;;1.75;;
55609;SDS011;41486;52.502;13.486;2022-12-07T13:55:55;1.73;;;1.05;;
55609;SDS011;41486;52.502;13.486;2022-12-07T13:58:33;2.25;;;1.15;;
55609;SDS011;41486;52.502;13.486;2022-12-07T14:01:01;3.03;;;1.38;;
55609;SDS011;41486;52.502;13.486;2022-12-07T14:03:31;2.33;;;1.58;;
55609;SDS011;41486;52.502;13.486;2022-12-07T14:06:05;2.50;;;1.50;;
55609;SDS011;41486;52.502;13.486;2022-12-07T14:08:41;5.28;;;1.70;;
55609;SDS011;41486;52.502;13.486;2022-12-07T14:11:10;2.03;;;1.35;;
55609;SDS011;41486;52.502;13.486;2022-12-07T14:13:56;3.50;;;0.95;;
55609;SDS011;41486;52.502;13.486;2022-12-07T14:16:26;1.45;;;1.35;;
55609;SDS011;41486;52.502;13.486;2022-12-07T14:18:57;4.32;;;1.65;;
55609;SDS011;41486;52.502;13.486;2022-12-07T14:21:29;6.20;;;1.25;;
55609;SDS011;41486;52.502;13.486;2022-12-07T14:24:14;3.00;;;1.33;;
55609;SDS011;41486;52.502;13.486;2022-12-07T14:26:45;4.25;;;1.70;;
55609;SDS011;41486;52.502;13.486;2022-12-07T14:29:18;3.03;;;1.55;;
55609;SDS011;41486;52.502;13.486;2022-12-07T14:32:01;2.25;;;1.02;;
55609;SDS011;41486;52.502;13.486;2022-12-07T14:34:55;4.60;;;1.30;;
55609;SDS011;41486;52.502;13.486;2022-12-07T14:37:29;6.50;;;1.63;;
55609;SDS011;41486;52.502;13.486;2022-12-07T14:39:59;1.90;;;1.30;;
55609;SDS011;41486;52.502;13.486;2022-12-07T14:42:29;2.42;;;1.35;;
55609;SDS011;41486;52.502;13.486;2022-12-07T14:44:59;6.03;;;2.58;;
55609;SDS011;41486;52.502;13.486;2022-12-07T14:47:27;5.00;;;1.58;;
55609;SDS011;41486;52.502;13.486;2022-12-07T14:50:16;6.40;;;1.67;;
55609;SDS011;41486;52.502;13.486;2022-12-07T14:52:46;2.90;;;1.75;;
55609;SDS011;41486;52.502;13.486;2022-12-07T14:55:39;3.08;;;1.85;;
55609;SDS011;41486;52.502;13.486;2022-12-07T14:58:10;2.75;;;1.55;;
55609;SDS011;41486;52.502;13.486;2022-12-07T15:00:41;3.58;;;1.55;;
55609;SDS011;41486;52.502;13.486;2022-12-07T15:03:09;3.60;;;1.50;;
55609;SDS011;41486;52.502;13.486;2022-12-07T15:05:39;2.88;;;1.15;;
55609;SDS011;41486;52.502;13.486;2022-12-07T15:08:08;4.82;;;1.60;;
55609;SDS011;41486;52.502;13.486;2022-12-07T15:10:38;3.45;;;1.75;;
55609;SDS011;41486;52.502;13.486;2022-12-07T15:13:07;6.88;;;2.10;;
55609;SDS011;41486;52.502;13.486;2022-12-07T15:15:53;1.90;;;1.48;;
55609;SDS011;41486;52.502;13.486;2022-12-07T15:18:22;3.58;;;1.55;;
55609;SDS011;41486;52.502;13.486;2022-12-07T15:20:51;6.00;;;1.40;;
55609;SDS011;41486;52.502;13.486;2022-12-07T15:23:19;5.18;;;1.38;;
55609;SDS011;41486;52.502;13.486;2022-12-07T15:25:48;5.68;;;2.47;;
55609;SDS011;41486;52.502;13.486;2022-12-07T15:28:17;6.38;;;2.05;;
55609;SDS011;41486;52.502;13.486;2022-12-07T15:30:47;2.28;;;1.85;;
55609;SDS011;41486;52.502;13.486;2022-12-07T15:33:15;2.25;;;1.10;;
55609;SDS011;41486;52.502;13.486;2022-12-07T15:35:43;3.65;;;1.63;;
55609;SDS011;41486;52.502;13.486;2022-12-07T15:38:12;3.25;;;1.80;;